Morton, TX (79346)

1:53 PM CDT on July 30, 2016 (GMT -0500)
Clovis Municipal | | Change Station

Elev 4216 ft 34.43 °N, 103.08 °W | Updated 18 minutes ago

Partly Cloudy
Partly Cloudy
88 °F
Feels Like 88 °F
N
10
Wind Variable Wind from SSW
Gusts 24 mph

Today
High -- | Low -- °F
--% Chance of Precip.
Yesterday
High -- | Low -- °F
Precip. -- in
Pressure 30.11 in
Visibility 10.0 miles
Clouds Few 6000 ft
Heat Index 88 °F
Dew Point 61 °F
Humidity 40%
Rainfall 0.00 in
Snow Depth Not available.
7:02 AM 8:52 PM
Waning Crescent, 11% visible
METAR KCVN 301835Z AUTO 20009G21KT 10SM FEW060 31/16 A3011 RMK AO1
Pressure 30.11 in
Visibility 10.0 miles
Clouds Few 6000 ft
Heat Index 88 °F
Dew Point 61 °F
Humidity 40%
Rainfall 0.00 in
Snow Depth Not available.
7:02 AM 8:52 PM
Waning Crescent, 11% visible
METAR KCVN 301835Z AUTO 20009G21KT 10SM FEW060 31/16 A3011 RMK AO1

10-Day Weather Forecast

Almanac

Astronomy

Jul. 30, 2016 Rise Set
Actual Time
Civil Twilight
Nautical Twilight
Astronomical Twilight
Moon
Length of Visible Light
Length of Day
Tomorrow will be .
, % of the Moon is Illuminated

Today's Extremes

State Highs State Lows

Community

WunderPhotos

Upload Photos

1,928,612 photos uploaded!

WunderBlog® & News

Nearby

Air Quality

  Air Quality AQ Index Pollutant
Not available.

Snow Depth

Station Depth Elevation

Earthquake Activity

City Distance Mag. Time & Date
Minimum magnitude displayed is 2.5.

Coastal Water Temperatures

Place Temperature

Stations

Nearby Weather Stations

Station Location Temp. Windchill Dew Point Humidity Wind Precip. Elev Updated Type
                   

Watches & Warnings

There are currently no watches in effect.